Willards, Maryland
Current Conditions -  °F | °C
As of 6:54 AM on Saturday 20 Dec 2014 (Local Time) from KSBY Reporting Station
Clear Clear  
Wind Chill: 26°   Ceiling: Unl
Heat Index: 26°   Visibility: 8mi
Dew Point: 21°   Wind: 3mph
Humidity: 81%   Direction: 230°SW
Pressure: 30.28"   Gusts: NA
Location:  38.39°N, 75.35°W
Report Text: KSBY 201154Z 23003KT 8SM CLR M03/M06 A3028 RMK AO2 SLP255 I6000 T10331061 10000 21044 53010
Loading
Personal Weather Stations






























Interactive Weather Map New forecast layout! Learn more

10-Day Weather Forecast

Advertisements
Track Severe Weather on mobile